Time;durP1;ratioP1;P1;durP2;ratioP2;P2;SDS_P1;SDS_P2;PMS_P1;PMS_P2;Temp;Humidity;BMP_temperature;BMP_pressure;BME280_temperature;BME280_humidity;BME280_pressure;Samples;Min_cycle;Max_cycle;Signal;HPM_P1;HPM_P2
2022/08/11 00:02:33;;;;;;;2.67;2.30;;;;;;;18.60;72.02;102560.81;4962874;28;20748;-79
2022/08/11 00:05:04;;;;;;;3.50;2.40;;;;;;;18.50;71.89;102558.03;4996723;28;20763;-78
2022/08/11 00:07:30;;;;;;;4.07;2.70;;;;;;;18.50;72.55;102561.53;4980976;28;20180;-77
2022/08/11 00:09:57;;;;;;;6.63;2.80;;;;;;;18.21;74.04;102559.31;5001965;28;20283;-79
2022/08/11 00:12:24;;;;;;;6.73;3.10;;;;;;;18.26;73.62;102565.44;4985787;28;20220;-81
2022/08/11 00:14:58;;;;;;;4.47;2.50;;;;;;;18.10;74.59;102566.91;5003535;28;20180;-80
2022/08/11 00:17:30;;;;;;;5.00;2.73;;;;;;;18.01;75.43;102561.56;4990086;28;20188;-80
2022/08/11 00:20:09;;;;;;;4.97;2.40;;;;;;;18.04;75.13;102565.91;4971619;28;20219;-82
2022/08/11 00:22:38;;;;;;;5.10;3.00;;;;;;;17.90;75.56;102563.09;4982467;28;20720;-79
2022/08/11 00:25:12;;;;;;;3.27;2.80;;;;;;;17.93;75.71;102564.88;4989240;28;20203;-78
2022/08/11 00:27:39;;;;;;;4.30;2.60;;;;;;;17.88;75.63;102567.41;4991780;28;20199;-81
2022/08/11 00:30:07;;;;;;;3.57;2.50;;;;;;;17.76;75.98;102562.00;4978970;28;20207;-80
2022/08/11 00:32:34;;;;;;;3.27;2.60;;;;;;;17.69;76.03;102562.72;4984401;28;20188;-79
2022/08/11 00:35:01;;;;;;;3.90;2.70;;;;;;;17.69;76.28;102561.88;4995391;28;20259;-80
2022/08/11 00:37:27;;;;;;;2.83;2.30;;;;;;;17.63;76.27;102562.63;4985197;28;20212;-80
2022/08/11 00:39:55;;;;;;;5.57;2.70;;;;;;;17.63;76.24;102559.16;4988959;28;20208;-81
2022/08/11 00:42:42;;;;;;;3.63;2.43;;;;;;;17.52;76.93;102566.75;5001001;28;20575;-79
2022/08/11 00:45:26;;;;;;;5.30;2.73;;;;;;;17.43;77.13;102558.78;5000760;28;20187;-78
2022/08/11 00:48:35;;;;;;;5.93;2.60;;;;;;;17.39;76.98;102559.56;5006126;28;20188;-79
2022/08/11 00:51:35;;;;;;;5.30;2.80;;;;;;;17.34;77.17;102553.41;4972962;28;20295;-81
2022/08/11 00:54:38;;;;;;;3.40;2.90;;;;;;;17.23;77.56;102562.66;4987814;28;20203;-80
2022/08/11 00:57:22;;;;;;;3.83;2.70;;;;;;;17.22;77.69;102560.91;4985609;28;20247;-80
2022/08/11 01:00:15;;;;;;;4.07;2.80;;;;;;;17.16;78.20;102567.69;4986002;28;20304;-80
2022/08/11 01:02:44;;;;;;;4.57;2.77;;;;;;;17.13;77.93;102570.25;4975868;28;20220;-80
2022/08/11 01:05:33;;;;;;;7.30;2.90;;;;;;;17.10;78.39;102564.97;4985878;28;20196;-78
2022/08/11 01:08:17;;;;;;;4.93;3.37;;;;;;;17.04;78.80;102573.50;4980835;28;20187;-79
2022/08/11 01:10:58;;;;;;;5.83;3.30;;;;;;;17.04;78.91;102575.22;4970828;28;20238;-81
2022/08/11 01:13:51;;;;;;;3.07;2.67;;;;;;;17.00;78.89;102578.59;5004166;28;20190;-79
2022/08/11 01:16:34;;;;;;;5.73;3.10;;;;;;;16.96;79.24;102575.06;5004600;28;20184;-80
2022/08/11 01:19:29;;;;;;;4.17;2.90;;;;;;;16.89;80.17;102572.28;4993459;28;20252;-79
2022/08/11 01:22:23;;;;;;;3.90;3.03;;;;;;;16.76;80.09;102571.16;4992634;28;20662;-80
2022/08/11 01:25:16;;;;;;;4.60;2.90;;;;;;;16.73;80.23;102573.69;5001960;28;20200;-80
2022/08/11 01:28:18;;;;;;;4.53;3.17;;;;;;;16.74;79.69;102570.25;4984686;28;20189;-80
2022/08/11 01:31:21;;;;;;;3.47;2.63;;;;;;;16.70;80.08;102564.97;4986578;28;20297;-79
2022/08/11 01:34:24;;;;;;;4.07;2.80;;;;;;;16.63;79.80;102566.53;4978398;28;20200;-79
2022/08/11 01:37:12;;;;;;;4.83;3.40;;;;;;;16.63;79.84;102573.44;4987886;28;20211;-79
2022/08/11 01:39:56;;;;;;;3.47;3.07;;;;;;;16.58;79.86;102572.47;4994622;28;20215;-79
2022/08/11 01:45:38;;;;;;;3.67;3.30;;;;;;;16.47;79.86;102573.91;4985774;28;20207;-80
2022/08/11 01:48:31;;;;;;;5.30;3.50;;;;;;;16.41;80.46;102572.09;5003847;28;20188;-81
2022/08/11 01:51:14;;;;;;;4.13;3.37;;;;;;;16.36;81.13;102576.25;4997314;28;20204;-79
2022/08/11 01:53:58;;;;;;;3.63;3.23;;;;;;;16.34;81.43;102570.16;4983600;28;20707;-79
2022/08/11 01:56:49;;;;;;;3.90;3.10;;;;;;;16.21;82.63;102575.00;4996578;28;20282;-78
2022/08/11 01:59:33;;;;;;;4.40;3.13;;;;;;;16.25;82.28;102566.50;4997876;28;20213;-80
2022/08/11 02:02:52;;;;;;;5.23;3.37;;;;;;;16.21;81.85;102565.50;5000272;28;20337;-79
2022/08/11 02:05:24;;;;;;;6.00;3.13;;;;;;;16.18;81.97;102569.75;4975546;28;20596;-77
2022/08/11 02:08:07;;;;;;;6.43;3.33;;;;;;;16.11;82.31;102573.03;4998431;28;20211;-79
2022/08/11 02:14:10;;;;;;;4.13;3.20;;;;;;;16.00;82.15;102572.75;4984834;28;20629;-80
2022/08/11 02:17:16;;;;;;;5.60;3.13;;;;;;;16.03;82.76;102575.41;4991691;28;20283;-81
2022/08/11 02:25:56;;;;;;;6.53;3.83;;;;;;;15.84;83.64;102560.28;4988396;28;20223;-80
2022/08/11 02:28:29;;;;;;;3.90;3.37;;;;;;;15.86;84.25;102563.78;4982218;28;20188;-80
2022/08/11 02:33:21;;;;;;;5.73;3.67;;;;;;;15.77;84.37;102566.13;4988469;28;20232;-81
2022/08/11 02:33:47;;;;;;;5.43;3.90;;;;;;;15.71;85.06;102567.69;4996992;28;20665;-80
2022/08/11 02:36:19;;;;;;;6.60;3.53;;;;;;;15.79;85.36;102568.75;4982174;28;20177;-80
2022/08/11 02:39:00;;;;;;;7.23;3.37;;;;;;;15.78;85.08;102570.47;4992318;28;20585;-79
2022/08/11 02:45:08;;;;;;;3.87;3.47;;;;;;;15.66;86.04;102562.38;4999275;28;20195;-80
2022/08/11 02:51:05;;;;;;;5.60;3.63;;;;;;;15.67;84.74;102563.25;4988865;28;20584;-80
2022/08/11 02:53:45;;;;;;;3.87;3.17;;;;;;;15.60;84.42;102561.34;4966357;28;20181;-81
2022/08/11 02:56:12;;;;;;;8.53;3.47;;;;;;;15.54;85.82;102564.66;4996243;28;20909;-80
2022/08/11 03:02:26;;;;;;;4.17;3.60;;;;;;;15.46;84.61;102565.25;4987546;28;20224;-79
2022/08/11 03:05:12;;;;;;;3.63;3.20;;;;;;;15.34;85.47;102573.53;4987993;28;20223;-80
2022/08/11 03:07:47;;;;;;;4.23;3.83;;;;;;;15.37;85.34;102567.63;4984178;28;20201;-78
2022/08/11 03:10:24;;;;;;;4.63;3.60;;;;;;;15.40;85.22;102565.09;4982772;28;20280;-79
2022/08/11 03:16:46;;;;;;;3.97;3.17;;;;;;;15.30;85.16;102563.06;4981987;28;20196;-78
2022/08/11 03:19:48;;;;;;;4.67;3.73;;;;;;;15.27;84.58;102565.56;4985971;28;20202;-79
2022/08/11 03:22:37;;;;;;;5.57;3.40;;;;;;;15.22;84.76;102561.97;4990258;28;20176;-77
2022/08/11 03:25:30;;;;;;;5.23;3.90;;;;;;;15.15;85.31;102557.50;4979807;28;20187;-80
2022/08/11 03:28:43;;;;;;;4.90;3.20;;;;;;;15.16;84.70;102564.41;4993497;28;20245;-81
2022/08/11 03:31:23;;;;;;;4.87;3.40;;;;;;;15.13;85.42;102564.28;4989174;28;20224;-79
2022/08/11 03:34:05;;;;;;;4.30;3.30;;;;;;;15.08;85.36;102561.59;4984336;28;20184;-79
2022/08/11 03:36:45;;;;;;;6.10;3.90;;;;;;;15.09;84.61;102571.09;5000379;28;20180;-79
2022/08/11 03:39:29;;;;;;;4.80;3.70;;;;;;;15.06;85.06;102565.81;4996556;28;20598;-80
2022/08/11 03:42:17;;;;;;;5.30;3.60;;;;;;;15.04;85.52;102562.34;4985061;28;20184;-80
2022/08/11 03:45:20;;;;;;;5.97;3.37;;;;;;;15.01;85.44;102567.41;4981817;28;20200;-79
2022/08/11 03:48:13;;;;;;;5.53;3.30;;;;;;;15.00;85.07;102559.59;4982147;28;20192;-80
2022/08/11 03:51:05;;;;;;;5.67;3.70;;;;;;;14.96;85.17;102561.22;4965688;28;20212;-80
2022/08/11 03:53:38;;;;;;;5.20;4.00;;;;;;;14.92;85.57;102559.38;4965260;28;20961;-80
2022/08/11 03:56:38;;;;;;;5.70;4.33;;;;;;;14.91;85.84;102561.94;5000107;28;20529;-79
2022/08/11 03:59:44;;;;;;;4.90;4.40;;;;;;;14.92;86.24;102571.44;4997076;28;20199;-79
2022/08/11 04:02:34;;;;;;;6.40;4.73;;;;;;;14.87;86.66;102560.09;5003123;28;20172;-80
2022/08/11 04:05:18;;;;;;;8.67;4.90;;;;;;;14.87;86.15;102566.13;4996163;28;20200;-80
2022/08/11 04:08:11;;;;;;;6.73;4.40;;;;;;;14.90;86.16;102565.34;4965665;28;20207;-79
2022/08/11 04:11:04;;;;;;;5.63;4.50;;;;;;;14.83;87.19;102560.84;4990894;28;20223;-79
2022/08/11 04:13:38;;;;;;;4.83;4.30;;;;;;;14.88;86.35;102567.00;4981066;28;20673;-77
2022/08/11 04:16:28;;;;;;;5.73;4.37;;;;;;;14.86;86.83;102569.53;4984356;28;20182;-81
2022/08/11 04:19:00;;;;;;;4.97;4.27;;;;;;;14.87;86.93;102560.97;4968389;28;20188;-79
2022/08/11 04:21:34;;;;;;;6.83;4.53;;;;;;;14.94;86.33;102559.44;4985929;28;20212;-77
2022/08/11 04:24:48;;;;;;;5.27;4.37;;;;;;;14.98;87.03;102562.16;4984366;28;20718;-78
2022/08/11 04:27:45;;;;;;;5.47;4.97;;;;;;;14.90;87.85;102553.31;4995957;28;20612;-79
2022/08/11 04:30:24;;;;;;;7.97;4.60;;;;;;;14.94;87.89;102557.75;4989427;28;20564;-81
2022/08/11 04:33:17;;;;;;;5.67;4.73;;;;;;;14.95;87.99;102568.91;4991597;28;20180;-80
2022/08/11 04:36:08;;;;;;;5.83;4.43;;;;;;;14.92;87.82;102566.28;4985892;28;20311;-80
2022/08/11 04:39:18;;;;;;;7.73;4.60;;;;;;;15.05;87.33;102570.97;4968757;28;20545;-81
2022/08/11 04:45:32;;;;;;;6.93;3.97;;;;;;;15.16;88.19;102561.81;5001745;28;20225;-80
2022/08/11 05:01:40;;;;;;;6.57;4.33;;;;;;;15.62;86.63;102559.69;5006048;28;20474;-81
2022/08/11 05:07:47;;;;;;;9.23;4.00;;;;;;;15.90;86.18;102555.28;5000223;28;20184;-78
2022/08/11 05:10:31;;;;;;;4.30;3.70;;;;;;;16.01;85.71;102553.81;4997145;28;20215;-79
2022/08/11 05:36:16;;;;;;;7.67;3.93;;;;;;;17.45;81.67;102561.41;4984980;28;20199;-79
2022/08/11 05:58:44;;;;;;;8.70;4.00;;;;;;;18.83;77.50;102546.41;4985361;28;20200;-81
2022/08/11 06:01:12;;;;;;;8.47;4.30;;;;;;;18.96;77.26;102547.44;4986093;28;20755;-80
2022/08/11 06:06:28;;;;;;;6.07;3.80;;;;;;;19.31;76.07;102540.97;4988347;28;20196;-80
2022/08/11 06:08:57;;;;;;;5.97;3.90;;;;;;;19.42;74.85;102547.16;4987636;28;20630;-81
2022/08/11 06:11:25;;;;;;;6.07;3.37;;;;;;;19.52;73.93;102546.38;4985326;28;20605;-80
2022/08/11 06:13:51;;;;;;;4.57;3.60;;;;;;;19.70;73.11;102543.97;4984275;28;20180;-80
2022/08/11 06:16:24;;;;;;;5.43;3.43;;;;;;;19.88;72.50;102555.41;4984574;28;20180;-80
2022/08/11 06:18:50;;;;;;;9.23;3.77;;;;;;;20.08;72.20;102547.81;4985516;28;20291;-80
2022/08/11 06:21:17;;;;;;;7.03;3.60;;;;;;;20.19;71.63;102549.66;4984462;28;20215;-80
2022/08/11 06:23:44;;;;;;;5.67;3.40;;;;;;;20.31;72.03;102544.50;4985099;28;20215;-81
2022/08/11 06:26:11;;;;;;;5.53;3.63;;;;;;;20.48;71.24;102544.63;4967964;28;20223;-80
2022/08/11 06:28:40;;;;;;;4.73;3.20;;;;;;;20.60;69.69;102547.31;4985794;28;20196;-81
2022/08/11 06:31:12;;;;;;;5.33;3.33;;;;;;;20.85;69.16;102551.78;4983684;28;20212;-80
2022/08/11 06:34:07;;;;;;;4.43;2.90;;;;;;;21.06;66.79;102560.59;4984821;28;20176;-81
2022/08/11 06:37:06;;;;;;;4.40;2.60;;;;;;;21.21;65.36;102549.34;4984684;28;20204;-81
2022/08/11 06:40:02;;;;;;;4.17;2.57;;;;;;;21.40;64.03;102556.34;4983624;28;20211;-79
2022/08/11 06:42:50;;;;;;;7.60;2.60;;;;;;;21.49;62.96;102546.84;4985672;28;20263;-78
2022/08/11 06:45:16;;;;;;;8.47;2.80;;;;;;;21.72;61.35;102549.50;4986489;28;20194;-81
2022/08/11 06:47:46;;;;;;;4.57;2.47;;;;;;;21.91;60.72;102554.75;4969073;28;20223;-81
2022/08/11 06:53:06;;;;;;;4.87;2.83;;;;;;;22.30;58.47;102540.81;4985257;28;20208;-81
2022/08/11 07:01:10;;;;;;;6.63;2.50;;;;;;;22.85;57.29;102528.50;4996050;28;20227;-77
2022/08/11 07:03:46;;;;;;;4.73;2.47;;;;;;;23.06;57.23;102529.28;4997343;28;20242;-78
2022/08/11 07:06:21;;;;;;;5.23;2.53;;;;;;;23.05;56.73;102534.50;4998241;28;20226;-77
2022/08/11 07:17:48;;;;;;;4.47;2.20;;;;;;;23.73;54.66;102530.63;4983000;28;20248;-80
2022/08/11 07:28:57;;;;;;;6.05;2.60;;;;;;;24.27;52.73;102532.78;5004215;28;20188;-81
2022/08/11 07:31:29;;;;;;;6.05;2.42;;;;;;;24.54;54.44;102531.66;4986249;28;20188;-81
2022/08/11 07:34:04;;;;;;;5.32;2.47;;;;;;;24.88;53.44;102527.78;4986515;28;20607;-80
2022/08/11 07:36:31;;;;;;;5.45;2.50;;;;;;;25.03;52.05;102531.09;4984693;28;20587;-80
2022/08/11 07:38:57;;;;;;;4.18;2.28;;;;;;;25.05;51.64;102525.84;4972823;28;21027;-80
2022/08/11 07:41:24;;;;;;;3.40;2.30;;;;;;;25.29;51.50;102531.66;4960483;28;20188;-80
2022/08/11 07:44:07;;;;;;;5.78;2.40;;;;;;;25.56;50.43;102525.97;4968585;28;20477;-79
2022/08/11 07:52:36;;;;;;;3.90;1.75;;;;;;;26.08;46.49;102526.03;5018178;28;20201;-79
2022/08/11 07:55:10;;;;;;;3.50;2.22;;;;;;;26.02;45.00;102521.75;5007282;28;20208;-81
2022/08/11 08:19:43;;;;;;;3.38;2.25;;;;;;;27.75;44.00;102524.25;4999837;28;20215;-81
2022/08/11 08:22:10;;;;;;;6.43;2.08;;;;;;;27.85;44.12;102531.06;4999661;28;20199;-80
2022/08/11 08:24:40;;;;;;;4.65;2.55;;;;;;;27.89;43.17;102527.47;5000580;28;20211;-79
2022/08/11 08:27:08;;;;;;;7.53;2.38;;;;;;;28.09;42.81;102527.81;5000370;28;20195;-78
2022/08/11 08:32:21;;;;;;;7.75;2.35;;;;;;;28.36;43.12;102518.31;4999815;28;20195;-80
2022/08/11 08:34:51;;;;;;;3.38;2.10;;;;;;;28.44;41.91;102533.03;4986135;28;20191;-81
2022/08/11 08:37:25;;;;;;;2.90;2.00;;;;;;;28.64;43.17;102522.78;5003292;28;20191;-79
2022/08/11 08:39:52;;;;;;;4.28;2.53;;;;;;;28.87;42.45;102520.34;5001953;28;20206;-81
2022/08/11 08:42:30;;;;;;;5.28;2.60;;;;;;;28.86;40.28;102526.56;5001158;28;20196;-80
2022/08/11 08:45:00;;;;;;;2.85;2.30;;;;;;;29.08;40.77;102518.91;4984176;28;20203;-78
2022/08/11 08:47:30;;;;;;;4.28;2.10;;;;;;;29.18;40.34;102518.56;4992846;28;20641;-78
2022/08/11 08:50:04;;;;;;;5.10;2.35;;;;;;;29.18;40.17;102515.06;4993835;28;20218;-78
2022/08/11 08:52:39;;;;;;;4.95;2.38;;;;;;;29.58;39.29;102508.53;4997727;28;20176;-78
2022/08/11 08:55:07;;;;;;;4.35;2.05;;;;;;;29.82;37.72;102506.81;4968039;28;20191;-78
2022/08/11 08:57:36;;;;;;;4.32;2.22;;;;;;;29.96;36.84;102497.53;4996308;28;20192;-79
2022/08/11 09:00:05;;;;;;;6.43;2.30;;;;;;;29.82;36.74;102504.19;5000588;28;20207;-78
2022/08/11 09:02:31;;;;;;;3.75;2.13;;;;;;;30.07;37.16;102503.28;5003293;28;20188;-80
2022/08/11 09:04:57;;;;;;;6.25;2.15;;;;;;;30.08;36.16;102496.25;4978583;28;20196;-80
2022/08/11 09:07:27;;;;;;;4.05;1.83;;;;;;;30.32;36.04;102495.41;5009597;28;20196;-80
2022/08/11 09:09:57;;;;;;;3.63;1.92;;;;;;;30.50;35.94;102485.91;5005938;28;20216;-79
2022/08/11 09:12:29;;;;;;;3.85;2.20;;;;;;;30.10;34.57;102489.09;4986941;28;20191;-79
2022/08/11 09:14:59;;;;;;;5.35;2.00;;;;;;;30.11;35.20;102485.53;5004879;28;20184;-79
2022/08/11 09:17:34;;;;;;;3.85;1.90;;;;;;;30.57;35.31;102484.78;5003739;28;20186;-79
2022/08/11 09:20:07;;;;;;;2.53;1.73;;;;;;;30.95;34.44;102482.44;5002641;28;20207;-79
2022/08/11 09:28:24;;;;;;;3.03;1.80;;;;;;;31.01;34.17;102479.56;4977560;28;20307;-81
2022/08/11 09:31:09;;;;;;;;;;;;;;;;;;;;;
2022/08/11 09:33:49;;;;;;;2.25;2.05;;;;;;;31.45;32.14;102472.50;4982538;28;20222;-80
2022/08/11 09:45:50;;;;;;;3.58;1.90;;;;;;;31.46;33.00;102466.28;4981284;28;20188;-79
2022/08/11 09:48:30;;;;;;;4.55;2.20;;;;;;;31.62;32.81;102462.94;4962361;28;20215;-79
2022/08/11 09:51:07;;;;;;;6.05;2.22;;;;;;;31.48;31.46;102456.50;4983022;28;20215;-78
2022/08/11 09:53:54;;;;;;;;;;;;;;;;;;;;;
2022/08/11 09:59:31;;;;;;;4.60;1.77;;;;;;;32.58;30.47;102453.38;4984906;28;20259;-79
2022/08/11 10:02:24;;;;;;;2.13;1.90;;;;;;;32.43;31.50;102446.13;4983198;28;20259;-81
2022/08/11 10:07:00;;;;;;;3.15;1.80;;;;;;;32.80;30.09;102442.63;4984027;28;20243;-80
2022/08/11 10:10:54;;;;;;;6.78;2.03;;;;;;;33.26;30.35;102442.13;4981658;28;20219;-79
2022/08/11 10:15:32;;;;;;;2.80;1.75;;;;;;;32.81;28.52;102433.72;4972865;28;20192;-81
2022/08/11 10:16:36;;;;;;;3.13;1.80;;;;;;;31.99;29.98;102433.94;4977889;28;20214;-79
2022/08/11 10:19:06;;;;;;;2.70;2.20;;;;;;;31.71;30.44;102430.72;4981072;28;20200;-80
2022/08/11 10:21:39;;;;;;;2.55;1.90;;;;;;;31.84;30.15;102426.66;4980645;28;20183;-78
2022/08/11 10:27:18;;;;;;;2.22;1.85;;;;;;;32.78;29.68;102413.47;4980646;28;20187;-80
2022/08/11 10:35:53;;;;;;;3.58;1.90;;;;;;;32.07;30.29;102407.06;4973805;28;20495;-78
2022/08/11 10:38:23;;;;;;;3.90;2.13;;;;;;;32.29;30.00;102406.09;4979290;28;20188;-78
2022/08/11 10:49:34;;;;;;;2.75;1.80;;;;;;;34.01;29.46;102393.06;4978600;28;20212;-79
2022/08/11 11:02:21;;;;;;;2.88;1.60;;;;;;;33.45;27.89;102390.69;5039730;28;20227;-80
2022/08/11 11:05:22;;;;;;;2.92;1.75;;;;;;;32.62;28.64;102391.25;5022023;28;20244;-79
2022/08/11 11:18:57;;;;;;;4.28;1.77;;;;;;;33.62;27.63;102380.06;5041149;28;20261;-78
2022/08/11 11:22:36;;;;;;;2.17;1.42;;;;;;;33.34;26.94;102373.56;5025484;28;20205;-80
2022/08/11 11:25:36;;;;;;;3.72;1.70;;;;;;;34.06;28.20;102370.59;5024870;28;20222;-81
2022/08/11 11:32:02;;;;;;;2.83;1.60;;;;;;;34.17;26.25;102368.19;5039116;28;20244;-80
2022/08/11 11:35:11;;;;;;;2.08;1.88;;;;;;;33.69;26.68;102370.81;5038182;28;20190;-78
2022/08/11 11:38:01;;;;;;;2.70;1.67;;;;;;;34.11;27.12;102368.53;5055271;28;20247;-79
2022/08/11 11:41:29;;;;;;;3.03;1.83;;;;;;;34.04;25.65;102372.50;5067212;23;20477;-81
2022/08/11 11:44:04;;;;;;;1.80;1.65;;;;;;;34.40;26.24;102373.16;5019053;28;20214;-81
2022/08/11 11:46:37;;;;;;;2.20;1.73;;;;;;;32.60;27.73;102371.84;5040040;28;20254;-80
2022/08/11 11:49:31;;;;;;;2.50;1.80;;;;;;;33.14;27.41;102371.88;5008163;28;20213;-80
2022/08/11 11:52:16;;;;;;;;;;;;;;;;;;;;;
2022/08/11 11:55:13;;;;;;;;;;;;;;;;;;;;;
2022/08/11 12:03:57;;;;;;;1.92;1.52;;;;;;;33.48;26.70;102363.97;5037924;28;20217;-80
2022/08/11 12:06:43;;;;;;;2.42;1.50;;;;;;;34.10;25.88;102361.50;5037717;28;20193;-79
2022/08/11 12:09:40;;;;;;;3.45;1.40;;;;;;;34.13;25.76;102357.81;5041610;28;20217;-80
2022/08/11 12:15:36;;;;;;;1.83;1.20;;;;;;;34.12;26.17;102348.97;5035650;28;20197;-80
2022/08/11 12:18:55;;;;;;;2.28;1.30;;;;;;;34.15;24.85;102355.94;5001763;28;20183;-80
2022/08/11 12:27:41;;;;;;;2.75;1.23;;;;;;;34.47;25.46;102337.28;5027994;28;20237;-79
2022/08/11 12:30:26;;;;;;;1.70;1.20;;;;;;;34.25;25.20;102346.53;5027902;28;20675;-76
2022/08/11 12:33:05;;;;;;;1.75;1.27;;;;;;;34.15;24.80;102339.97;5030480;28;20317;-77
2022/08/11 12:35:34;;;;;;;1.55;1.02;;;;;;;34.13;23.54;102334.75;5033668;28;20181;-78
2022/08/11 12:38:06;;;;;;;2.78;1.33;;;;;;;33.72;24.32;102337.88;5035832;28;20675;-79
2022/08/11 12:46:43;;;;;;;3.15;1.27;;;;;;;33.16;25.43;102337.25;5039623;28;20190;-80
2022/08/11 12:52:09;;;;;;;2.55;1.00;;;;;;;32.68;25.02;102303.34;5041537;28;20617;-79
2022/08/11 12:54:45;;;;;;;1.20;1.10;;;;;;;33.51;24.32;102315.94;5023210;28;20179;-79
2022/08/11 13:05:35;;;;;;;1.33;1.08;;;;;;;34.02;24.88;102302.53;5015072;28;20203;-78
2022/08/11 13:08:05;;;;;;;2.38;1.10;;;;;;;34.12;24.62;102300.25;4983876;28;20712;-78
2022/08/11 13:13:20;;;;;;;2.33;1.10;;;;;;;34.43;25.73;102302.91;4999246;28;20187;-80
2022/08/11 13:15:51;;;;;;;1.83;1.38;;;;;;;34.48;25.27;102292.88;5009507;28;20210;-80
2022/08/11 13:18:21;;;;;;;2.55;1.20;;;;;;;34.52;25.46;102289.94;5038778;28;20228;-79
2022/08/11 13:20:50;;;;;;;1.35;1.25;;;;;;;34.27;24.13;102286.06;5040624;28;20488;-80
2022/08/11 13:23:16;;;;;;;3.05;1.40;;;;;;;34.44;25.49;102276.22;5023388;28;20218;-79
2022/08/11 13:25:43;;;;;;;2.75;1.30;;;;;;;34.58;25.65;102275.44;5040908;28;20643;-79
2022/08/11 13:28:11;;;;;;;4.22;1.45;;;;;;;34.48;24.90;102280.41;5010172;28;21016;-77
2022/08/11 13:33:22;;;;;;;2.80;1.20;;;;;;;34.43;26.02;102266.50;5040604;28;20449;-80
2022/08/11 13:35:51;;;;;;;2.00;1.25;;;;;;;34.68;26.27;102273.94;5039223;28;20828;-80
2022/08/11 13:38:20;;;;;;;2.90;1.15;;;;;;;34.69;25.46;102273.00;5041549;28;20209;-78
2022/08/11 13:40:47;;;;;;;2.72;1.30;;;;;;;34.60;25.54;102265.53;5024676;28;20218;-80
2022/08/11 13:43:15;;;;;;;3.25;1.40;;;;;;;34.64;26.19;102269.75;5041851;28;20594;-79
2022/08/11 13:45:43;;;;;;;3.33;1.40;;;;;;;34.36;26.07;102261.63;5042254;28;20194;-81
2022/08/11 13:48:12;;;;;;;3.22;1.40;;;;;;;34.51;25.36;102266.06;5042093;28;20190;-81
2022/08/11 13:53:25;;;;;;;2.67;1.30;;;;;;;34.36;26.10;102262.50;5041490;28;20201;-81
2022/08/11 13:55:54;;;;;;;11.10;1.58;;;;;;;34.34;25.26;102263.53;5025584;28;20243;-79
2022/08/11 13:58:22;;;;;;;3.67;1.40;;;;;;;34.49;25.68;102262.66;5027152;28;20197;-80
2022/08/11 14:00:54;;;;;;;1.60;1.20;;;;;;;34.47;25.61;102253.88;5042971;28;20284;-79
2022/08/11 14:03:26;;;;;;;3.03;1.30;;;;;;;34.38;26.18;102252.59;5024957;28;20305;-79
2022/08/11 14:05:55;;;;;;;5.10;1.40;;;;;;;34.43;24.61;102252.31;5042370;28;20266;-78
2022/08/11 14:08:27;;;;;;;2.30;1.30;;;;;;;34.38;26.70;102249.06;5041078;28;20190;-81
2022/08/11 14:13:44;;;;;;;2.33;1.20;;;;;;;34.66;25.06;102239.41;5042583;28;20601;-79
2022/08/11 14:16:22;;;;;;;1.50;1.38;;;;;;;33.96;25.54;102240.81;5040293;28;20259;-79
2022/08/11 14:18:52;;;;;;;3.63;1.70;;;;;;;34.12;25.83;102229.22;5039431;28;20179;-80
2022/08/11 14:24:10;;;;;;;3.50;1.20;;;;;;;34.35;24.95;102230.63;5041593;28;20205;-80
2022/08/11 14:26:38;;;;;;;3.25;1.30;;;;;;;34.15;26.47;102229.06;5039155;28;20197;-80
2022/08/11 14:29:13;;;;;;;1.67;1.40;;;;;;;34.36;26.27;102227.91;5025771;28;20265;-79
2022/08/11 14:31:50;;;;;;;1.50;1.35;;;;;;;34.37;24.97;102220.75;4999006;28;20210;-79
2022/08/11 14:34:20;;;;;;;2.30;1.08;;;;;;;34.38;25.21;102222.44;4992354;28;20211;-78
2022/08/11 14:37:01;;;;;;;2.17;1.20;;;;;;;34.23;25.78;102224.19;5010355;28;20837;-80
2022/08/11 14:39:39;;;;;;;2.38;1.25;;;;;;;34.25;26.32;102219.63;4984001;28;20263;-78
2022/08/11 14:47:53;;;;;;;3.70;1.00;;;;;;;33.81;25.50;102215.06;4999453;28;20211;-82
2022/08/11 14:50:22;;;;;;;2.63;1.50;;;;;;;33.77;24.77;102214.38;5000925;28;20214;-81
2022/08/11 14:52:51;;;;;;;4.63;1.30;;;;;;;33.26;25.45;102221.59;5000934;28;20180;-80
2022/08/11 14:58:06;;;;;;;1.92;1.40;;;;;;;33.70;25.10;102220.09;5000715;28;20211;-79
2022/08/11 15:00:33;;;;;;;2.42;1.20;;;;;;;33.87;25.60;102215.59;5011704;28;20199;-81
2022/08/11 15:03:08;;;;;;;1.70;1.30;;;;;;;33.72;26.21;102212.88;4999424;28;20396;-79
2022/08/11 15:05:35;;;;;;;3.95;1.20;;;;;;;33.86;25.49;102210.34;5000558;28;20644;-80
2022/08/11 15:08:01;;;;;;;3.38;1.50;;;;;;;33.51;24.65;102214.91;4998743;28;20290;-80
2022/08/11 15:10:27;;;;;;;1.05;0.95;;;;;;;33.62;26.29;102206.38;4999911;28;20207;-78
2022/08/11 15:12:56;;;;;;;4.28;1.08;;;;;;;33.56;25.23;102204.88;5000268;28;20238;-79
2022/08/11 15:18:14;;;;;;;1.25;1.10;;;;;;;32.92;24.43;102203.03;5020018;28;20174;-80
2022/08/11 15:37:24;;;;;;;4.28;1.23;;;;;;;32.85;26.72;102191.00;4999229;28;20258;-80
2022/08/11 15:37:26;;;;;;;5.85;1.70;;;;;;;32.31;29.96;102194.59;5017748;28;20191;-79
2022/08/11 15:46:05;;;;;;;5.28;1.55;;;;;;;31.81;30.15;102190.84;5022648;28;20748;-79
2022/08/11 15:48:30;;;;;;;5.88;1.42;;;;;;;31.74;30.73;102184.09;5020591;28;20179;-80
2022/08/11 15:51:25;;;;;;;3.95;1.58;;;;;;;31.53;31.11;102192.19;5004007;28;20230;-78
2022/08/11 15:54:02;;;;;;;5.43;1.65;;;;;;;31.55;31.36;102179.72;4998883;28;20217;-79
2022/08/11 15:56:30;;;;;;;4.13;1.50;;;;;;;31.46;31.27;102183.66;5002945;28;20183;-78
2022/08/11 16:04:31;;;;;;;2.80;1.20;;;;;;;30.97;33.07;102189.38;5021460;28;20225;-82
2022/08/11 16:07:02;;;;;;;5.10;1.50;;;;;;;30.93;33.16;102190.41;5019949;28;20195;-81
2022/08/11 16:09:36;;;;;;;3.45;1.98;;;;;;;30.61;33.34;102196.19;5020375;28;20249;-81
2022/08/11 16:12:07;;;;;;;4.30;1.60;;;;;;;30.59;33.26;102190.13;5002326;28;20261;-80
2022/08/11 16:17:24;;;;;;;3.47;1.50;;;;;;;30.41;33.96;102192.66;5011041;28;20204;-79
2022/08/11 16:19:53;;;;;;;6.57;1.60;;;;;;;30.41;33.92;102188.22;4997990;28;20191;-78
2022/08/11 16:22:26;;;;;;;7.22;1.73;;;;;;;30.20;34.07;102178.50;4998743;28;20179;-80
2022/08/11 16:25:02;;;;;;;5.68;1.67;;;;;;;30.04;34.29;102183.53;5001148;28;20218;-79
2022/08/11 16:27:34;;;;;;;4.90;1.67;;;;;;;30.01;34.74;102183.66;4997365;28;20205;-79
2022/08/11 16:30:02;;;;;;;6.85;1.58;;;;;;;29.93;34.66;102179.59;4995313;28;20286;-78
2022/08/11 16:32:30;;;;;;;3.67;1.65;;;;;;;29.88;34.34;102186.81;4995550;28;20228;-80
2022/08/11 16:40:39;;;;;;;3.90;1.60;;;;;;;29.61;34.51;102194.03;4999152;28;20222;-79
2022/08/11 16:48:41;;;;;;;2.00;1.30;;;;;;;29.26;35.47;102183.03;5002053;28;20210;-79
2022/08/11 16:51:10;;;;;;;2.88;1.60;;;;;;;29.20;35.97;102193.81;5000299;28;20673;-80
2022/08/11 16:53:37;;;;;;;4.45;1.23;;;;;;;29.13;35.00;102189.66;4982950;28;20544;-79
2022/08/11 16:56:04;;;;;;;1.88;1.50;;;;;;;29.05;35.57;102183.78;5000308;28;20184;-80
2022/08/11 17:01:20;;;;;;;3.75;1.38;;;;;;;28.86;35.68;102175.63;5000148;28;20211;-80
2022/08/11 17:15:00;;;;;;;4.38;1.60;;;;;;;28.52;35.97;102187.38;4999841;28;20184;-79
2022/08/11 17:17:32;;;;;;;5.15;1.35;;;;;;;28.43;36.40;102188.53;5007159;28;20189;-79
2022/08/11 17:20:06;;;;;;;3.42;1.20;;;;;;;28.37;36.01;102183.41;5019089;28;20223;-80
2022/08/11 17:25:19;;;;;;;4.03;1.48;;;;;;;28.24;36.59;102174.22;5022048;28;20183;-78
2022/08/11 17:27:47;;;;;;;1.85;1.10;;;;;;;28.21;37.40;102174.28;5022903;28;20179;-79
2022/08/11 17:30:13;;;;;;;4.97;1.45;;;;;;;28.10;37.47;102175.53;5004892;28;20211;-78
2022/08/11 17:35:38;;;;;;;3.42;1.63;;;;;;;27.95;37.05;102179.50;5023027;28;20163;-77
2022/08/11 17:38:16;;;;;;;3.30;1.30;;;;;;;27.88;37.46;102174.47;4996313;28;20238;-79
2022/08/11 17:49:10;;;;;;;2.35;1.40;;;;;;;27.56;38.58;102180.69;5041520;28;20209;-79
2022/08/11 17:59:55;;;;;;;4.82;1.50;;;;;;;27.12;39.11;102186.28;5045648;28;20769;-81
2022/08/11 18:05:13;;;;;;;1.73;1.30;;;;;;;27.00;39.25;102177.88;5043676;28;20214;-81
